Time;durP1;ratioP1;P1;durP2;ratioP2;P2;SDS_P1;SDS_P2;PMS_P1;PMS_P2;Temp;Humidity;BMP_temperature;BMP_pressure;BME280_temperature;BME280_humidity;BME280_pressure;Samples;Min_cycle;Max_cycle;Signal;HPM_P1;HPM_P2
2021/11/29 00:02:11;;;;;;;5.72;2.70;;;6.40;99.90;;;;;;4854616;29;20038;-85
2021/11/29 00:04:37;;;;;;;;;;;6.40;99.90;;;;;;4826942;29;20041;-80
2021/11/29 00:07:03;;;;;;;6.57;2.72;;;6.50;99.90;;;;;;4838810;29;20289;-83
2021/11/29 00:09:29;;;;;;;6.28;2.83;;;6.50;99.90;;;;;;4863280;29;20110;-82
2021/11/29 00:11:54;;;;;;;15.40;3.20;;;6.60;99.90;;;;;;4846508;29;20133;-79
2021/11/29 00:14:20;;;;;;;5.00;2.47;;;6.60;99.90;;;;;;4863173;29;20041;-85
2021/11/29 00:16:47;;;;;;;9.25;2.83;;;6.60;99.90;;;;;;4863195;29;20033;-80
2021/11/29 00:19:13;;;;;;;7.65;2.75;;;6.60;99.90;;;;;;4862989;29;20044;-88
2021/11/29 00:21:38;;;;;;;5.22;2.78;;;6.60;99.90;;;;;;4861261;29;20376;-87
2021/11/29 00:24:05;;;;;;;8.88;4.57;;;6.50;99.90;;;;;;4833244;29;20129;-79
2021/11/29 00:26:31;;;;;;;7.82;4.10;;;6.50;99.90;;;;;;4827999;29;20069;-83
2021/11/29 00:28:56;;;;;;;7.20;3.28;;;6.40;99.90;;;;;;4844193;29;20081;-85
2021/11/29 00:31:22;;;;;;;8.50;4.03;;;6.40;99.90;;;;;;4844479;29;20045;-88
2021/11/29 00:33:48;;;;;;;4.40;2.50;;;6.40;99.90;;;;;;4844521;29;20034;-83
2021/11/29 00:36:15;;;;;;;4.90;2.72;;;6.40;99.90;;;;;;4844283;29;20030;-88
2021/11/29 00:38:42;;;;;;;6.32;3.35;;;6.50;99.90;;;;;;4825967;29;20063;-84
2021/11/29 00:41:07;;;;;;;5.72;3.03;;;6.60;99.90;;;;;;4826041;29;20038;-85
2021/11/29 00:43:33;;;;;;;6.32;2.92;;;6.60;99.90;;;;;;4826025;29;20050;-85
2021/11/29 00:45:59;;;;;;;4.35;2.10;;;6.60;99.90;;;;;;4825887;29;20031;-80
2021/11/29 00:48:25;;;;;;;3.30;2.38;;;6.70;99.90;;;;;;4824480;29;20042;-84
2021/11/29 00:50:50;;;;;;;4.95;2.40;;;6.70;99.90;;;;;;4825922;29;20034;-88
2021/11/29 00:53:16;;;;;;;8.57;2.92;;;6.70;99.90;;;;;;4825610;29;20110;-85
2021/11/29 00:55:42;;;;;;;5.45;2.58;;;6.70;99.90;;;;;;4826068;29;20547;-81
2021/11/29 00:58:08;;;;;;;3.03;2.25;;;6.70;99.90;;;;;;4824916;29;20042;-86
2021/11/29 01:00:35;;;;;;;4.82;2.20;;;6.60;99.90;;;;;;4826270;29;20469;-86
2021/11/29 01:03:02;;;;;;;4.25;2.25;;;6.50;99.90;;;;;;4825517;29;20449;-86
2021/11/29 01:05:29;;;;;;;2.58;2.10;;;6.50;99.90;;;;;;4824771;29;20510;-80
2021/11/29 01:07:56;;;;;;;10.27;2.00;;;6.50;99.90;;;;;;4830529;29;20041;-82
2021/11/29 01:10:22;;;;;;;7.03;1.92;;;6.50;99.90;;;;;;4862079;29;20543;-85
2021/11/29 01:12:47;;;;;;;3.75;2.28;;;6.50;99.90;;;;;;4862081;29;20041;-82
2021/11/29 01:15:16;;;;;;;4.93;2.20;;;6.40;99.90;;;;;;4862486;29;20067;-85
2021/11/29 01:17:43;;;;;;;3.17;1.83;;;6.30;99.90;;;;;;4862056;29;20036;-86
2021/11/29 01:20:11;;;;;;;4.45;2.10;;;6.30;99.90;;;;;;4862082;29;20032;-83
2021/11/29 01:22:38;;;;;;;3.08;2.08;;;6.20;99.90;;;;;;4862107;29;20034;-88
2021/11/29 01:25:04;;;;;;;4.38;2.25;;;6.10;99.90;;;;;;4862255;29;20029;-85
2021/11/29 01:27:30;;;;;;;3.60;2.10;;;6.10;99.90;;;;;;4861609;29;20108;-84
2021/11/29 01:29:56;;;;;;;3.58;2.20;;;6.10;99.90;;;;;;4861931;29;20050;-79
2021/11/29 01:32:22;;;;;;;6.63;2.10;;;6.00;99.90;;;;;;4861661;29;20038;-87
2021/11/29 01:34:47;;;;;;;5.22;2.42;;;5.90;99.90;;;;;;4861856;29;20089;-84
2021/11/29 01:37:13;;;;;;;6.63;2.30;;;5.90;99.90;;;;;;4861240;29;20476;-79
2021/11/29 01:39:39;;;;;;;3.47;2.20;;;5.90;99.90;;;;;;4861632;29;20090;-81
2021/11/29 01:42:07;;;;;;;4.05;2.35;;;6.00;99.90;;;;;;4861264;29;20049;-87
2021/11/29 01:44:33;;;;;;;5.10;2.10;;;6.00;99.90;;;;;;4861347;29;20047;-85
2021/11/29 01:47:00;;;;;;;4.40;2.50;;;6.10;99.90;;;;;;4844746;29;20658;-81
2021/11/29 01:49:26;;;;;;;3.38;1.88;;;6.10;99.90;;;;;;4861390;29;20064;-80
2021/11/29 01:51:51;;;;;;;12.73;2.45;;;6.10;99.90;;;;;;4861434;29;20030;-84
2021/11/29 01:54:17;;;;;;;3.38;2.30;;;6.10;99.90;;;;;;4861580;29;20048;-83
2021/11/29 01:56:43;;;;;;;4.43;2.25;;;6.20;99.90;;;;;;4846952;29;20502;-81
2021/11/29 01:59:09;;;;;;;2.25;2.05;;;6.20;99.90;;;;;;4843115;29;20038;-83
2021/11/29 02:01:36;;;;;;;2.92;2.47;;;6.30;99.90;;;;;;4842732;29;20034;-80
2021/11/29 02:04:02;;;;;;;7.50;2.22;;;6.30;99.90;;;;;;4842744;29;20049;-89
2021/11/29 02:06:30;;;;;;;5.80;2.70;;;6.30;99.90;;;;;;4842692;29;20037;-79
2021/11/29 02:08:56;;;;;;;4.13;2.38;;;6.30;99.90;;;;;;4825610;29;20065;-83
2021/11/29 02:11:24;;;;;;;3.58;2.47;;;6.20;99.90;;;;;;4842743;29;20034;-89
2021/11/29 02:13:51;;;;;;;3.50;2.50;;;6.20;99.90;;;;;;4826390;29;20061;-86
2021/11/29 02:16:17;;;;;;;4.15;2.28;;;6.10;99.90;;;;;;4842826;29;20038;-88
2021/11/29 02:18:43;;;;;;;6.15;3.30;;;6.10;99.90;;;;;;4842422;29;20132;-86
2021/11/29 02:21:18;;;;;;;3.40;2.60;;;6.10;99.90;;;;;;4842842;29;20034;-83
2021/11/29 02:23:51;;;;;;;3.90;2.38;;;6.10;99.90;;;;;;4842933;29;20086;-81
2021/11/29 02:26:19;;;;;;;2.55;1.90;;;6.20;99.90;;;;;;4842483;29;20026;-88
2021/11/29 02:28:49;;;;;;;2.72;1.80;;;6.20;99.90;;;;;;4842245;29;20034;-83
2021/11/29 02:31:22;;;;;;;2.90;2.17;;;6.20;99.90;;;;;;4842726;29;20034;-81
2021/11/29 02:33:48;;;;;;;2.55;2.10;;;6.20;99.90;;;;;;4826377;29;20472;-88
2021/11/29 02:36:13;;;;;;;2.08;1.88;;;6.20;99.90;;;;;;4841764;29;20105;-84
2021/11/29 02:38:40;;;;;;;3.00;1.90;;;6.30;99.90;;;;;;4841784;29;20123;-79
2021/11/29 02:41:06;;;;;;;3.55;2.38;;;6.30;99.90;;;;;;4842354;29;20057;-87
2021/11/29 02:43:32;;;;;;;2.47;2.10;;;6.30;99.90;;;;;;4842445;29;20075;-85
2021/11/29 02:45:58;;;;;;;6.75;2.22;;;6.40;99.90;;;;;;4842094;29;20034;-85
2021/11/29 02:48:40;;;;;;;5.97;2.20;;;6.40;99.90;;;;;;4842192;29;20117;-78
2021/11/29 02:51:06;;;;;;;;;;;6.40;99.90;;;;;;4842268;29;20038;-85
2021/11/29 02:53:32;;;;;;;3.72;2.30;;;6.40;99.90;;;;;;4840258;29;19919;-87
2021/11/29 02:55:57;;;;;;;2.72;1.95;;;6.40;99.90;;;;;;4842654;29;20034;-85
2021/11/29 02:58:23;;;;;;;4.03;2.13;;;6.40;99.90;;;;;;4842205;29;20042;-81
2021/11/29 03:00:49;;;;;;;4.85;1.83;;;6.40;99.90;;;;;;4841983;29;20055;-79
2021/11/29 03:03:14;;;;;;;4.55;2.20;;;6.40;99.90;;;;;;4841876;29;20121;-79
2021/11/29 03:05:40;;;;;;;6.57;2.45;;;6.40;99.90;;;;;;4842769;29;20425;-84
2021/11/29 03:08:06;;;;;;;2.38;2.10;;;6.30;99.90;;;;;;4842327;29;20037;-86
2021/11/29 03:10:32;;;;;;;5.38;2.55;;;6.20;99.90;;;;;;4842336;29;20041;-86
2021/11/29 03:12:59;;;;;;;2.30;2.10;;;6.10;99.90;;;;;;4825897;29;20132;-82
2021/11/29 03:15:25;;;;;;;4.57;2.40;;;6.00;99.90;;;;;;4842720;29;20042;-84
2021/11/29 03:17:50;;;;;;;4.28;3.53;;;6.00;99.90;;;;;;4842162;29;20046;-87
2021/11/29 03:20:16;;;;;;;3.83;2.30;;;6.00;99.90;;;;;;4826481;29;20045;-85
2021/11/29 03:22:44;;;;;;;2.95;2.38;;;6.00;99.90;;;;;;4845900;29;20030;-83
2021/11/29 03:25:11;;;;;;;3.75;2.55;;;6.00;99.90;;;;;;4845253;29;20073;-85
2021/11/29 03:27:38;;;;;;;4.93;2.40;;;6.00;99.90;;;;;;4845485;29;20022;-83
2021/11/29 03:30:05;;;;;;;2.65;2.45;;;6.00;99.90;;;;;;4845507;29;20070;-84
2021/11/29 03:32:33;;;;;;;4.10;2.72;;;6.00;99.90;;;;;;4845573;29;20041;-78
2021/11/29 03:34:59;;;;;;;2.90;2.60;;;5.90;99.90;;;;;;4845064;29;20038;-88
2021/11/29 03:37:24;;;;;;;3.53;2.90;;;5.80;99.90;;;;;;4845226;29;20098;-86
2021/11/29 03:39:50;;;;;;;3.72;2.50;;;5.80;99.90;;;;;;4828565;29;20091;-85
2021/11/29 03:42:16;;;;;;;2.75;2.47;;;5.80;99.90;;;;;;4845092;29;20499;-79
2021/11/29 03:44:42;;;;;;;3.25;2.58;;;5.80;99.90;;;;;;4845036;29;20038;-82
2021/11/29 03:47:08;;;;;;;3.50;2.80;;;5.70;99.90;;;;;;4845277;29;20075;-80
2021/11/29 03:49:34;;;;;;;3.70;2.30;;;5.70;99.90;;;;;;4845084;29;20117;-86
2021/11/29 03:52:00;;;;;;;2.95;2.10;;;5.70;99.90;;;;;;4845056;29;20130;-83
2021/11/29 03:54:26;;;;;;;3.13;2.35;;;5.60;99.90;;;;;;4827798;29;20504;-86
2021/11/29 03:56:52;;;;;;;2.42;2.20;;;5.50;99.90;;;;;;4846314;29;20038;-87
2021/11/29 03:59:18;;;;;;;6.55;2.53;;;5.50;99.90;;;;;;4844541;29;20072;-86
2021/11/29 04:01:44;;;;;;;1.80;1.70;;;5.50;99.90;;;;;;4845176;29;20034;-84
2021/11/29 04:04:10;;;;;;;2.70;2.00;;;5.50;99.90;;;;;;4844931;29;20046;-88
2021/11/29 04:06:36;;;;;;;1.80;1.70;;;5.50;99.90;;;;;;4845092;29;20143;-84
2021/11/29 04:09:03;;;;;;;1.88;1.75;;;5.50;99.90;;;;;;4844800;29;20078;-85
2021/11/29 04:11:30;;;;;;;1.73;1.63;;;5.50;99.90;;;;;;4844860;29;20030;-82
2021/11/29 04:13:56;;;;;;;3.00;2.33;;;5.50;99.90;;;;;;4844886;29;20034;-86
2021/11/29 04:16:22;;;;;;;1.77;1.67;;;5.50;99.90;;;;;;4844090;29;20506;-86
2021/11/29 04:18:48;;;;;;;2.05;1.55;;;5.50;99.90;;;;;;4844455;29;20053;-84
2021/11/29 04:21:15;;;;;;;1.38;1.30;;;5.60;99.90;;;;;;4844408;29;20102;-81
2021/11/29 04:23:45;;;;;;;1.70;1.60;;;5.60;99.90;;;;;;4844633;29;20098;-84
2021/11/29 04:26:14;;;;;;;1.65;1.50;;;5.60;99.90;;;;;;4828813;29;20049;-88
2021/11/29 04:28:40;;;;;;;1.50;1.40;;;5.60;99.90;;;;;;4844650;29;20046;-87
2021/11/29 04:31:06;;;;;;;1.42;1.33;;;5.60;99.90;;;;;;4845084;29;20038;-85
2021/11/29 04:33:32;;;;;;;1.85;1.55;;;5.50;99.90;;;;;;4843923;29;20045;-85
2021/11/29 04:35:59;;;;;;;2.60;1.35;;;5.50;99.90;;;;;;4828193;29;20049;-85
2021/11/29 04:38:24;;;;;;;2.72;1.35;;;5.50;99.90;;;;;;4845336;29;20452;-78
2021/11/29 04:40:50;;;;;;;1.40;1.30;;;5.50;99.90;;;;;;4837172;29;20054;-86
2021/11/29 04:43:16;;;;;;;2.88;2.47;;;5.50;99.90;;;;;;4825879;29;20084;-78
2021/11/29 04:45:43;;;;;;;1.10;1.10;;;5.50;99.90;;;;;;4826276;29;20114;-81
2021/11/29 04:48:09;;;;;;;1.00;1.00;;;5.50;99.90;;;;;;4844112;29;20086;-86
2021/11/29 04:50:35;;;;;;;0.90;0.90;;;5.60;99.90;;;;;;4828183;29;20049;-85
2021/11/29 04:53:01;;;;;;;1.13;1.13;;;5.60;99.90;;;;;;4844099;29;20086;-82
2021/11/29 04:55:27;;;;;;;1.23;1.10;;;5.60;99.90;;;;;;4844381;29;20389;-82
2021/11/29 04:57:52;;;;;;;1.10;1.10;;;5.60;99.90;;;;;;4844347;29;20038;-86
2021/11/29 05:00:20;;;;;;;1.00;1.00;;;5.60;99.90;;;;;;4844032;29;20152;-84
2021/11/29 05:02:47;;;;;;;0.98;0.93;;;5.60;99.90;;;;;;4844054;29;20503;-86
2021/11/29 05:05:14;;;;;;;1.00;1.00;;;5.60;99.90;;;;;;4843673;29;20113;-83
2021/11/29 05:07:39;;;;;;;1.00;1.00;;;5.70;99.90;;;;;;4844358;29;20045;-87
2021/11/29 05:10:07;;;;;;;1.10;1.10;;;5.60;99.90;;;;;;4835643;29;20050;-84
2021/11/29 05:12:33;;;;;;;0.90;0.90;;;5.70;99.90;;;;;;4843512;29;20599;-85
2021/11/29 05:14:58;;;;;;;1.00;1.00;;;5.70;99.90;;;;;;4843613;29;20042;-81
2021/11/29 05:17:24;;;;;;;0.90;0.90;;;5.70;99.90;;;;;;4842835;29;20034;-83
2021/11/29 05:19:50;;;;;;;1.40;1.30;;;5.70;99.90;;;;;;4843465;29;20034;-85
2021/11/29 05:22:16;;;;;;;1.05;1.05;;;5.70;99.90;;;;;;4827137;29;20042;-85
2021/11/29 05:24:42;;;;;;;1.13;1.02;;;5.80;99.90;;;;;;4843226;29;20116;-83
2021/11/29 05:27:08;;;;;;;1.05;1.05;;;5.80;99.90;;;;;;4843411;29;20480;-84
2021/11/29 05:29:34;;;;;;;0.90;0.90;;;5.90;99.90;;;;;;4843214;29;20084;-84
2021/11/29 05:32:00;;;;;;;1.15;1.10;;;6.10;99.90;;;;;;4827608;29;20502;-78
2021/11/29 05:34:26;;;;;;;0.88;0.88;;;6.20;99.90;;;;;;4843456;29;20038;-87
2021/11/29 05:36:51;;;;;;;1.40;1.30;;;6.20;99.90;;;;;;4826646;29;20034;-80
2021/11/29 05:39:17;;;;;;;1.00;1.00;;;6.20;99.90;;;;;;4843142;29;20476;-87
2021/11/29 05:41:45;;;;;;;1.75;1.15;;;6.30;99.90;;;;;;4826760;29;20054;-83
2021/11/29 05:44:13;;;;;;;3.65;1.20;;;6.30;99.90;;;;;;4826141;29;20038;-83
2021/11/29 05:46:39;;;;;;;1.00;1.00;;;6.30;99.90;;;;;;4843179;29;20037;-82
2021/11/29 05:49:04;;;;;;;1.35;1.25;;;6.30;99.90;;;;;;4826765;29;20500;-81
2021/11/29 05:51:30;;;;;;;1.40;1.30;;;6.30;99.90;;;;;;4842766;29;20544;-82
2021/11/29 05:53:56;;;;;;;1.13;1.10;;;6.30;99.90;;;;;;4843238;29;20070;-85
2021/11/29 05:56:22;;;;;;;0.90;0.90;;;6.30;99.90;;;;;;4843109;29;20517;-87
2021/11/29 05:58:48;;;;;;;1.25;1.10;;;6.30;99.90;;;;;;4842954;29;20109;-82
2021/11/29 06:01:14;;;;;;;1.40;1.30;;;6.30;99.90;;;;;;4843638;29;20425;-86
2021/11/29 06:03:40;;;;;;;1.00;1.00;;;6.30;99.90;;;;;;4827018;29;20034;-80
2021/11/29 06:06:06;;;;;;;1.02;1.00;;;6.30;99.90;;;;;;4826942;29;20507;-85
2021/11/29 06:08:32;;;;;;;1.08;1.00;;;6.30;99.90;;;;;;4842759;29;20046;-87
2021/11/29 06:10:58;;;;;;;1.50;1.40;;;6.40;99.90;;;;;;4843665;29;20428;-83
2021/11/29 06:13:23;;;;;;;1.50;1.40;;;6.40;99.90;;;;;;4843387;29;20033;-85
2021/11/29 06:15:49;;;;;;;1.38;1.27;;;6.40;99.90;;;;;;4843558;29;20042;-80
2021/11/29 06:18:15;;;;;;;1.63;1.45;;;6.40;99.90;;;;;;4843351;29;20042;-82
2021/11/29 06:20:41;;;;;;;1.65;1.55;;;6.40;99.90;;;;;;4842747;29;20037;-80
2021/11/29 06:23:07;;;;;;;1.38;1.30;;;6.40;99.90;;;;;;4842500;29;20082;-82
2021/11/29 06:25:37;;;;;;;1.50;1.40;;;6.50;99.90;;;;;;4842560;29;20449;-84
2021/11/29 06:28:03;;;;;;;1.50;1.40;;;6.50;99.90;;;;;;4826635;29;20067;-80
2021/11/29 06:30:29;;;;;;;1.40;1.30;;;6.50;99.90;;;;;;4843343;29;20566;-81
2021/11/29 06:32:55;;;;;;;1.30;1.20;;;6.40;99.90;;;;;;4842201;29;20121;-85
2021/11/29 06:35:21;;;;;;;1.58;1.35;;;6.40;99.90;;;;;;4826133;29;20095;-82
2021/11/29 06:37:48;;;;;;;1.30;1.20;;;6.40;99.90;;;;;;4840047;29;20030;-84
2021/11/29 06:40:15;;;;;;;1.17;1.13;;;6.40;99.90;;;;;;4847142;29;20038;-81
2021/11/29 06:42:41;;;;;;;1.45;0.98;;;6.40;99.90;;;;;;4843969;29;20583;-82
2021/11/29 06:45:07;;;;;;;1.20;1.10;;;6.40;99.90;;;;;;4843838;29;20124;-83
2021/11/29 06:47:33;;;;;;;1.00;1.00;;;6.40;99.90;;;;;;4828169;29;20034;-86
2021/11/29 06:49:59;;;;;;;1.02;1.02;;;6.40;99.90;;;;;;4847300;29;20045;-87
2021/11/29 06:52:24;;;;;;;1.30;1.20;;;6.30;99.90;;;;;;4828039;29;20038;-81
2021/11/29 06:54:51;;;;;;;1.80;1.70;;;6.40;99.90;;;;;;4845171;29;20033;-82
2021/11/29 06:57:18;;;;;;;1.67;1.10;;;6.40;99.90;;;;;;4846981;29;20659;-85
2021/11/29 06:59:46;;;;;;;1.15;1.15;;;6.30;99.90;;;;;;4847394;29;20070;-87
2021/11/29 07:02:12;;;;;;;1.73;1.33;;;6.40;99.90;;;;;;4848308;29;20044;-88
2021/11/29 07:04:38;;;;;;;1.38;1.20;;;6.40;99.90;;;;;;4832002;29;20586;-80
2021/11/29 07:07:04;;;;;;;1.25;1.15;;;6.40;99.90;;;;;;4847009;29;20038;-82
2021/11/29 07:09:30;;;;;;;1.08;1.05;;;6.30;99.90;;;;;;4849772;29;20074;-82
2021/11/29 07:11:56;;;;;;;1.02;1.02;;;6.40;99.90;;;;;;4833920;29;20045;-79
2021/11/29 07:14:21;;;;;;;1.38;1.27;;;6.40;99.90;;;;;;4830940;29;20492;-86
2021/11/29 07:16:47;;;;;;;1.10;1.00;;;6.50;99.90;;;;;;4851517;29;20038;-79
2021/11/29 07:19:14;;;;;;;1.00;1.00;;;6.80;99.90;;;;;;4866029;29;20094;-88
2021/11/29 07:21:41;;;;;;;0.90;0.90;;;7.00;99.90;;;;;;4865700;29;20029;-87
2021/11/29 07:24:09;;;;;;;1.00;1.00;;;7.20;99.90;;;;;;4865767;29;20040;-83
2021/11/29 07:26:36;;;;;;;1.20;1.10;;;7.10;99.90;;;;;;4848488;29;20518;-79
2021/11/29 07:29:01;;;;;;;1.17;1.08;;;7.00;99.90;;;;;;4866651;29;20492;-79
2021/11/29 07:31:27;;;;;;;1.00;1.00;;;7.00;99.90;;;;;;4864646;29;20041;-81
2021/11/29 07:33:53;;;;;;;1.00;1.00;;;7.30;99.90;;;;;;4865371;29;20034;-88
2021/11/29 07:36:18;;;;;;;0.80;0.80;;;7.50;99.90;;;;;;4854829;29;20038;-89
2021/11/29 07:38:44;;;;;;;0.80;0.80;;;7.70;99.90;;;;;;4860703;29;20484;-82
2021/11/29 07:41:10;;;;;;;0.85;0.80;;;7.90;99.90;;;;;;4846193;29;20782;-89
2021/11/29 07:43:36;;;;;;;0.80;0.80;;;8.10;99.90;;;;;;4852079;29;20073;-81
2021/11/29 07:46:02;;;;;;;1.10;1.00;;;8.30;99.90;;;;;;4847563;29;20147;-79
2021/11/29 07:48:28;;;;;;;1.70;1.23;;;8.60;99.90;;;;;;4848290;29;20046;-89
2021/11/29 07:50:54;;;;;;;0.73;0.73;;;9.10;99.90;;;;;;4848737;29;20075;-81
2021/11/29 07:53:21;;;;;;;0.70;0.70;;;9.60;99.90;;;;;;4849408;29;20041;-86
2021/11/29 07:55:47;;;;;;;1.42;1.00;;;10.00;99.90;;;;;;4834318;29;20034;-88
2021/11/29 07:58:13;;;;;;;3.03;0.90;;;10.10;99.90;;;;;;4834438;29;20107;-82
2021/11/29 08:00:38;;;;;;;0.82;0.80;;;10.20;99.90;;;;;;4833328;29;20198;-84
2021/11/29 08:03:06;;;;;;;0.60;0.60;;;10.40;99.90;;;;;;4831681;29;20034;-84
2021/11/29 08:05:33;;;;;;;1.13;0.70;;;11.40;99.90;;;;;;4829544;29;20451;-84
2021/11/29 08:08:00;;;;;;;0.70;0.70;;;11.80;99.90;;;;;;4849520;29;20038;-88
2021/11/29 08:10:27;;;;;;;1.08;0.70;;;11.70;99.90;;;;;;4844361;29;20077;-93
2021/11/29 08:12:55;;;;;;;1.40;0.90;;;10.80;99.90;;;;;;4828087;29;20483;-91
2021/11/29 08:15:21;;;;;;;0.65;0.65;;;10.80;99.90;;;;;;4828716;29;20126;-90
2021/11/29 08:17:48;;;;;;;0.70;0.70;;;10.70;99.90;;;;;;4839003;29;20414;-84
2021/11/29 08:20:14;;;;;;;0.77;0.77;;;11.00;99.90;;;;;;4859924;29;20030;-90
2021/11/29 08:22:41;;;;;;;1.30;0.90;;;10.60;99.90;;;;;;4860641;29;20041;-90
2021/11/29 08:25:07;;;;;;;0.95;0.60;;;10.80;99.90;;;;;;4851207;29;20495;-89
2021/11/29 08:27:33;;;;;;;1.73;0.75;;;11.30;99.90;;;;;;4844040;29;20046;-91
2021/11/29 08:30:08;;;;;;;3.50;1.75;;;11.70;99.90;;;;;;4844877;29;20073;-82
2021/11/29 08:32:35;;;;;;;0.90;0.80;;;12.10;99.90;;;;;;4844581;29;20041;-90
2021/11/29 08:35:01;;;;;;;0.88;0.80;;;12.80;99.90;;;;;;4844400;29;20038;-90
2021/11/29 08:37:27;;;;;;;0.40;0.40;;;13.80;99.90;;;;;;4844724;29;20130;-82
2021/11/29 08:39:53;;;;;;;1.13;0.70;;;13.40;99.90;;;;;;4828242;29;20066;-89
2021/11/29 08:42:18;;;;;;;0.50;0.50;;;13.30;99.90;;;;;;4845067;29;20062;-84
2021/11/29 08:44:44;;;;;;;0.88;0.40;;;13.50;99.90;;;;;;4858331;29;20044;-90
2021/11/29 08:47:10;;;;;;;6.93;0.50;;;13.40;99.90;;;;;;4862891;29;20034;-89
2021/11/29 08:49:36;;;;;;;0.73;0.40;;;14.10;99.90;;;;;;4852484;29;20081;-84
2021/11/29 08:52:02;;;;;;;0.40;0.40;;;14.20;99.90;;;;;;4826156;29;20418;-89
2021/11/29 08:54:29;;;;;;;0.85;0.40;;;14.10;99.90;;;;;;4844074;29;20042;-83
2021/11/29 08:56:55;;;;;;;0.55;0.55;;;15.00;99.90;;;;;;4860082;29;20033;-91
2021/11/29 08:59:22;;;;;;;0.57;0.40;;;15.30;99.90;;;;;;4850029;29;20571;-86
2021/11/29 09:01:50;;;;;;;1.60;0.70;;;15.10;99.90;;;;;;4843923;29;20064;-87
2021/11/29 09:04:17;;;;;;;0.73;0.45;;;15.30;99.90;;;;;;4828008;29;20070;-86
2021/11/29 09:06:43;;;;;;;0.60;0.60;;;14.90;99.90;;;;;;4843374;29;20041;-80
2021/11/29 09:09:11;;;;;;;0.50;0.50;;;13.80;99.90;;;;;;4860734;29;20046;-80
2021/11/29 09:11:37;;;;;;;1.27;0.52;;;14.20;99.90;;;;;;4824467;29;20053;-80
2021/11/29 09:14:03;;;;;;;0.80;0.40;;;15.00;99.90;;;;;;4840922;29;20049;-91
2021/11/29 09:16:29;;;;;;;1.55;0.50;;;16.10;99.90;;;;;;4827224;29;20049;-85
2021/11/29 09:18:54;;;;;;;0.60;0.40;;;16.50;99.80;;;;;;4843392;29;20038;-88
2021/11/29 09:21:22;;;;;;;0.68;0.68;;;15.90;98.00;;;;;;4843252;29;20041;-88
2021/11/29 09:23:48;;;;;;;0.63;0.55;;;15.60;98.60;;;;;;4827334;29;20038;-88
2021/11/29 09:26:15;;;;;;;0.98;0.40;;;15.70;98.30;;;;;;4843738;29;20090;-81
2021/11/29 09:28:42;;;;;;;0.80;0.35;;;15.30;98.50;;;;;;4827284;29;20065;-86
2021/11/29 09:31:09;;;;;;;0.82;0.40;;;15.20;98.70;;;;;;4843792;29;20053;-87
2021/11/29 09:33:35;;;;;;;5.22;0.40;;;14.80;99.10;;;;;;4830576;29;20045;-82
2021/11/29 09:36:03;;;;;;;0.70;0.63;;;14.50;99.40;;;;;;4833936;29;20042;-88
2021/11/29 09:38:29;;;;;;;1.27;0.63;;;14.20;98.50;;;;;;4843307;29;20499;-87
2021/11/29 09:40:55;;;;;;;5.07;1.05;;;13.50;98.90;;;;;;4826938;29;20079;-86
2021/11/29 09:43:22;;;;;;;3.80;0.60;;;12.30;99.90;;;;;;4843566;29;20142;-87
2021/11/29 09:45:50;;;;;;;1.55;0.75;;;11.80;99.90;;;;;;4843250;29;20042;-87
2021/11/29 09:48:17;;;;;;;0.88;0.80;;;11.60;99.90;;;;;;4843374;29;20048;-86
2021/11/29 09:50:46;;;;;;;1.42;0.77;;;11.40;99.90;;;;;;4843437;29;20540;-88
2021/11/29 09:53:14;;;;;;;0.95;0.73;;;10.90;99.90;;;;;;4842828;29;20066;-84
2021/11/29 09:55:41;;;;;;;1.60;0.85;;;10.60;99.90;;;;;;4843992;29;20042;-86
2021/11/29 09:58:07;;;;;;;1.38;1.10;;;10.30;99.90;;;;;;4842802;29;20191;-85
2021/11/29 10:00:39;;;;;;;0.88;0.88;;;10.40;99.90;;;;;;4842748;29;20109;-87
2021/11/29 10:03:06;;;;;;;1.95;0.80;;;10.40;99.90;;;;;;4848578;29;20058;-86
2021/11/29 10:05:34;;;;;;;0.98;0.80;;;10.20;99.90;;;;;;4861325;29;20158;-83
2021/11/29 10:08:16;;;;;;;2.50;1.63;;;10.00;99.90;;;;;;4861273;29;20037;-83
2021/11/29 10:10:47;;;;;;;0.73;0.73;;;10.00;99.90;;;;;;4860998;29;20097;-86
2021/11/29 10:13:13;;;;;;;2.40;0.90;;;10.30;99.90;;;;;;4855258;29;20026;-83
2021/11/29 10:15:41;;;;;;;0.80;0.80;;;10.80;99.90;;;;;;4842290;29;20365;-86
2021/11/29 10:18:19;;;;;;;1.45;0.80;;;10.60;99.90;;;;;;4823037;29;20081;-81
2021/11/29 10:20:49;;;;;;;1.45;0.90;;;10.10;99.90;;;;;;4832801;29;20045;-83
2021/11/29 10:23:22;;;;;;;1.48;1.15;;;10.10;99.90;;;;;;4833781;29;20038;-79
2021/11/29 10:25:48;;;;;;;1.02;0.75;;;10.10;99.90;;;;;;4841628;29;20038;-81
2021/11/29 10:28:38;;;;;;;0.93;0.80;;;10.10;99.90;;;;;;4840888;29;20552;-79
2021/11/29 10:31:12;;;;;;;1.48;0.98;;;9.80;99.90;;;;;;4840684;29;20026;-83
2021/11/29 10:34:03;;;;;;;1.45;0.77;;;9.70;99.90;;;;;;4839560;29;20109;-80
2021/11/29 10:36:40;;;;;;;2.53;1.30;;;9.80;99.90;;;;;;4833458;29;20526;-80
2021/11/29 10:39:10;;;;;;;0.88;0.88;;;10.10;99.90;;;;;;4835475;29;20280;-82
2021/11/29 10:41:46;;;;;;;0.98;0.90;;;10.10;99.90;;;;;;4837988;29;20030;-77
2021/11/29 10:44:20;;;;;;;1.58;1.13;;;9.90;99.90;;;;;;4841241;29;20034;-85
2021/11/29 10:46:49;;;;;;;2.05;1.42;;;9.50;99.90;;;;;;4840786;29;20030;-80
2021/11/29 10:49:17;;;;;;;1.88;1.45;;;9.30;99.90;;;;;;4854787;29;20081;-80
2021/11/29 10:51:45;;;;;;;1.85;1.30;;;9.30;99.90;;;;;;4844296;29;20038;-82
2021/11/29 10:54:20;;;;;;;1.00;1.00;;;9.10;99.90;;;;;;4841141;29;20037;-77
2021/11/29 10:56:47;;;;;;;1.23;1.10;;;9.20;99.90;;;;;;4838728;29;20467;-83
2021/11/29 10:59:21;;;;;;;3.45;1.00;;;9.30;99.90;;;;;;4840585;29;20037;-86
2021/11/29 11:01:51;;;;;;;1.50;1.10;;;9.40;99.90;;;;;;4841647;29;20030;-85
2021/11/29 11:04:26;;;;;;;1.55;1.15;;;9.40;99.90;;;;;;4841364;29;20049;-84
2021/11/29 11:06:59;;;;;;;1.20;1.10;;;9.70;99.90;;;;;;4839311;29;20022;-79
2021/11/29 11:09:29;;;;;;;2.13;1.40;;;9.80;99.90;;;;;;4840887;29;20042;-82
2021/11/29 11:12:00;;;;;;;1.65;0.98;;;9.80;99.90;;;;;;4824818;29;20034;-82
2021/11/29 11:14:50;;;;;;;1.42;1.20;;;9.60;99.90;;;;;;4824859;29;20045;-81
2021/11/29 11:17:17;;;;;;;1.08;0.85;;;10.10;99.90;;;;;;4841010;29;20045;-80
2021/11/29 11:19:48;;;;;;;3.17;1.58;;;10.00;99.90;;;;;;4840666;29;20082;-81
2021/11/29 11:22:19;;;;;;;1.67;1.38;;;9.80;99.90;;;;;;4840848;29;20038;-79
2021/11/29 11:24:46;;;;;;;1.35;1.25;;;9.70;99.90;;;;;;4840872;29;20034;-82
2021/11/29 11:27:12;;;;;;;2.35;1.83;;;9.60;99.90;;;;;;4839570;29;20034;-80
2021/11/29 11:29:46;;;;;;;3.00;1.80;;;9.70;99.90;;;;;;4841967;29;20056;-82
2021/11/29 11:32:13;;;;;;;2.05;0.90;;;9.70;99.90;;;;;;4834410;29;20034;-81
2021/11/29 11:34:43;;;;;;;3.08;1.25;;;9.60;99.90;;;;;;4832460;29;20037;-82
2021/11/29 11:37:10;;;;;;;1.60;1.50;;;9.60;99.90;;;;;;4841260;29;20045;-84
2021/11/29 11:39:37;;;;;;;5.68;2.42;;;9.50;99.90;;;;;;4842949;29;20034;-88
2021/11/29 11:42:03;;;;;;;2.95;1.92;;;9.70;99.90;;;;;;4825140;29;20440;-89
2021/11/29 11:44:32;;;;;;;1.88;1.70;;;9.80;99.90;;;;;;4816066;29;20061;-88
2021/11/29 11:47:00;;;;;;;1.50;1.40;;;9.90;99.90;;;;;;4844351;29;20030;-87
2021/11/29 11:49:27;;;;;;;1.95;1.75;;;10.10;99.90;;;;;;4831748;29;20042;-83
2021/11/29 11:51:53;;;;;;;3.97;2.00;;;10.30;99.90;;;;;;4841807;29;20060;-84
2021/11/29 11:54:20;;;;;;;5.07;1.60;;;10.40;99.90;;;;;;4841365;29;20034;-87
2021/11/29 11:56:45;;;;;;;6.35;1.60;;;10.50;99.90;;;;;;4832508;29;20061;-86
2021/11/29 11:59:17;;;;;;;2.70;1.73;;;10.60;99.90;;;;;;4841082;29;20038;-85
2021/11/29 12:01:45;;;;;;;3.50;2.43;;;10.60;99.90;;;;;;4836600;29;20022;-86
2021/11/29 12:04:17;;;;;;;3.35;2.25;;;10.70;99.90;;;;;;4833103;29;20034;-86
2021/11/29 12:06:48;;;;;;;2.58;1.80;;;10.70;99.90;;;;;;4843712;29;20026;-85
2021/11/29 12:09:15;;;;;;;1.25;1.20;;;10.70;99.90;;;;;;4820117;29;20042;-82
2021/11/29 12:11:48;;;;;;;2.03;1.30;;;10.60;99.90;;;;;;4825659;29;20087;-88
2021/11/29 12:14:23;;;;;;;1.50;1.10;;;10.40;99.90;;;;;;4824638;29;20496;-87
2021/11/29 12:16:52;;;;;;;1.60;1.02;;;9.90;99.90;;;;;;4828103;29;20030;-79
2021/11/29 12:19:47;;;;;;;1.67;1.20;;;9.70;99.90;;;;;;4827748;29;20526;-87
2021/11/29 12:22:16;;;;;;;2.20;1.48;;;9.70;99.90;;;;;;4841818;29;20050;-87
2021/11/29 12:24:46;;;;;;;1.73;1.25;;;9.70;99.90;;;;;;4844953;29;20026;-86
2021/11/29 12:27:13;;;;;;;1.20;1.10;;;9.70;99.90;;;;;;4821873;29;20042;-85
2021/11/29 12:29:39;;;;;;;1.00;1.00;;;9.50;99.90;;;;;;4835137;29;20048;-82
2021/11/29 12:32:05;;;;;;;1.10;1.00;;;9.30;99.90;;;;;;4827027;29;20058;-84
2021/11/29 12:37:16;;;;;;;1.23;1.13;;;9.00;99.90;;;;;;4838659;29;20049;-82
2021/11/29 12:39:42;;;;;;;2.25;1.17;;;9.10;99.90;;;;;;4841082;29;20419;-86
2021/11/29 12:45:08;;;;;;;1.50;1.38;;;8.80;99.90;;;;;;4839636;29;20030;-82
2021/11/29 12:47:47;;;;;;;2.80;1.40;;;8.80;99.90;;;;;;4842970;29;20069;-83
2021/11/29 12:50:32;;;;;;;4.78;2.30;;;8.70;99.90;;;;;;4843897;29;20064;-88
2021/11/29 12:53:10;;;;;;;1.58;1.23;;;8.60;99.90;;;;;;4831510;29;20286;-84
2021/11/29 12:55:36;;;;;;;3.53;1.20;;;8.70;99.90;;;;;;4842100;29;20033;-80
2021/11/29 12:58:18;;;;;;;4.13;1.30;;;8.70;99.90;;;;;;4842370;29;20030;-87
2021/11/29 13:00:49;;;;;;;2.50;1.55;;;8.70;99.90;;;;;;4843314;29;20057;-79
2021/11/29 13:03:16;;;;;;;1.20;1.10;;;8.60;99.90;;;;;;4840832;29;20522;-84